createdAt,value
2022-10-07T00:01:27.687Z,67.00
2022-10-07T00:03:58.214Z,67.03
2022-10-07T00:06:28.538Z,67.06
2022-10-07T00:08:56.667Z,67.04
2022-10-07T00:11:28.536Z,67.03
2022-10-07T00:14:00.672Z,67.12
2022-10-07T00:16:33.163Z,67.06
2022-10-07T00:19:07.688Z,67.20
2022-10-07T00:21:39.123Z,67.19
2022-10-07T00:24:11.281Z,67.28
2022-10-07T00:26:39.403Z,67.21
2022-10-07T00:29:09.797Z,67.30
2022-10-07T00:31:39.693Z,67.31
2022-10-07T00:34:10.968Z,67.26
2022-10-07T00:36:40.508Z,67.34
2022-10-07T00:39:13.656Z,67.30
2022-10-07T00:41:46.768Z,67.30
2022-10-07T00:44:32.831Z,67.39
2022-10-07T00:47:25.758Z,67.39
2022-10-07T00:50:13.776Z,67.44
2022-10-07T00:52:53.031Z,67.57
2022-10-07T00:55:26.193Z,67.47
2022-10-07T00:57:59.209Z,67.54
2022-10-07T01:00:28.582Z,67.65
2022-10-07T01:02:56.252Z,67.57
2022-10-07T01:05:24.167Z,67.55
2022-10-07T01:07:58.268Z,67.62
2022-10-07T01:10:49.843Z,67.60
2022-10-07T01:13:50.560Z,67.66
2022-10-07T01:16:33.057Z,67.66
2022-10-07T01:19:21.274Z,67.69
2022-10-07T01:22:03.227Z,67.73
2022-10-07T01:24:42.984Z,67.87
2022-10-07T01:27:19.355Z,67.82
2022-10-07T01:30:03.332Z,67.77
2022-10-07T01:32:53.298Z,67.83
2022-10-07T01:35:34.060Z,67.81
2022-10-07T01:38:11.118Z,67.90
2022-10-07T01:40:48.403Z,67.82
2022-10-07T01:43:19.974Z,67.83
2022-10-07T01:45:51.638Z,67.97
2022-10-07T01:48:19.379Z,67.91
2022-10-07T01:50:50.796Z,67.86
2022-10-07T01:53:25.036Z,67.78
2022-10-07T01:56:17.816Z,67.82
2022-10-07T01:59:14.158Z,67.92
2022-10-07T02:02:07.010Z,67.89
2022-10-07T02:05:06.973Z,68.00
2022-10-07T02:08:05.681Z,68.01
2022-10-07T02:11:02.939Z,68.06
2022-10-07T02:14:02.446Z,68.19
2022-10-07T02:16:36.486Z,68.12
2022-10-07T02:19:16.781Z,67.99
2022-10-07T02:21:49.482Z,68.25
2022-10-07T02:24:24.529Z,68.07
2022-10-07T02:26:55.867Z,68.18
2022-10-07T02:29:32.255Z,68.21
2022-10-07T02:32:06.820Z,68.10
2022-10-07T02:34:37.634Z,68.15
2022-10-07T02:37:19.700Z,68.26
2022-10-07T02:39:47.701Z,68.36
2022-10-07T02:42:46.459Z,68.04
2022-10-07T02:45:36.504Z,68.16
2022-10-07T02:48:27.860Z,68.14
2022-10-07T02:51:03.035Z,68.17
2022-10-07T02:53:36.299Z,68.28
2022-10-07T02:56:06.641Z,68.30
2022-10-07T02:58:37.843Z,68.38
2022-10-07T03:01:09.121Z,68.43
2022-10-07T03:03:37.135Z,68.45
2022-10-07T03:06:06.223Z,68.48
2022-10-07T03:08:37.211Z,68.50
2022-10-07T03:11:05.115Z,68.46
2022-10-07T03:13:36.731Z,68.55
2022-10-07T03:16:05.671Z,68.78
2022-10-07T03:18:35.758Z,68.73
2022-10-07T03:21:05.166Z,68.60
2022-10-07T03:23:36.078Z,68.63
2022-10-07T03:26:04.424Z,68.73
2022-10-07T03:28:37.483Z,68.78
2022-10-07T03:31:08.935Z,68.74
2022-10-07T03:33:39.012Z,68.74
2022-10-07T03:36:08.838Z,68.57
2022-10-07T03:38:38.468Z,68.64
2022-10-07T03:41:08.062Z,68.61
2022-10-07T03:43:39.386Z,68.64
2022-10-07T03:46:07.562Z,68.59
2022-10-07T03:48:35.654Z,68.66
2022-10-07T03:51:04.524Z,68.64
2022-10-07T03:53:32.227Z,68.71
2022-10-07T03:56:01.736Z,68.70
2022-10-07T03:58:29.518Z,68.67
2022-10-07T04:01:24.689Z,68.66
2022-10-07T04:03:55.885Z,68.81
2022-10-07T04:06:23.584Z,68.88
2022-10-07T04:08:55.229Z,68.83
2022-10-07T04:11:24.462Z,68.82
2022-10-07T04:13:53.627Z,68.90
2022-10-07T04:16:24.554Z,68.90
2022-10-07T04:18:56.162Z,68.89
2022-10-07T04:21:24.779Z,68.89
2022-10-07T04:23:52.734Z,68.87
2022-10-07T04:26:57.131Z,69.03
2022-10-07T04:29:25.438Z,68.95
2022-10-07T04:31:53.161Z,69.08
2022-10-07T04:34:21.454Z,69.09
2022-10-07T04:36:49.389Z,69.21
2022-10-07T04:39:17.294Z,69.31
2022-10-07T04:41:45.167Z,69.33
2022-10-07T04:44:13.439Z,69.35
2022-10-07T04:46:41.449Z,69.39
2022-10-07T04:49:10.870Z,69.37
2022-10-07T04:51:38.746Z,69.22
2022-10-07T04:54:09.748Z,69.28
2022-10-07T04:56:37.718Z,69.42
2022-10-07T04:59:06.097Z,69.46
2022-10-07T05:01:34.060Z,69.50
2022-10-07T05:04:03.398Z,69.54
2022-10-07T05:06:31.124Z,69.55
2022-10-07T05:09:01.870Z,69.56
2022-10-07T05:11:31.168Z,69.62
2022-10-07T05:14:03.278Z,69.69
2022-10-07T05:16:31.298Z,69.76
2022-10-07T05:19:01.708Z,69.73
2022-10-07T05:21:31.014Z,69.71
2022-10-07T05:24:00.120Z,69.84
2022-10-07T05:26:30.803Z,69.83
2022-10-07T05:28:58.983Z,69.98
2022-10-07T05:31:28.072Z,69.96
2022-10-07T05:33:59.466Z,70.00
2022-10-07T05:36:30.098Z,69.98
2022-10-07T05:38:59.337Z,70.03
2022-10-07T05:41:29.923Z,70.08
2022-10-07T05:43:58.035Z,70.30
2022-10-07T05:46:30.161Z,70.27
2022-10-07T05:49:00.997Z,70.40
2022-10-07T05:51:28.660Z,70.36
2022-10-07T05:53:59.727Z,70.42
2022-10-07T05:56:27.470Z,70.35
2022-10-07T05:58:57.196Z,70.11
2022-10-07T06:01:28.478Z,70.22
2022-10-07T06:04:00.176Z,70.41
2022-10-07T06:06:31.140Z,70.57
2022-10-07T06:09:18.794Z,70.49
2022-10-07T06:12:08.472Z,70.67
2022-10-07T06:14:37.566Z,70.81
2022-10-07T06:17:08.282Z,70.75
2022-10-07T06:19:39.848Z,70.78
2022-10-07T06:22:07.549Z,70.85
2022-10-07T06:24:38.198Z,70.95
2022-10-07T06:27:08.929Z,71.11
2022-10-07T06:29:36.615Z,71.07
2022-10-07T06:32:08.245Z,70.87
2022-10-07T06:34:37.138Z,70.97
2022-10-07T06:37:04.803Z,71.08
2022-10-07T06:39:32.693Z,71.04
2022-10-07T06:42:00.558Z,71.08
2022-10-07T06:44:31.623Z,71.19
2022-10-07T06:46:59.434Z,71.20
2022-10-07T06:49:27.350Z,71.30
2022-10-07T06:51:55.008Z,71.29
2022-10-07T06:54:22.905Z,71.31
2022-10-07T06:56:52.235Z,71.34
2022-10-07T06:59:20.090Z,71.36
2022-10-07T07:01:48.075Z,71.37
2022-10-07T07:04:15.856Z,71.43
2022-10-07T07:06:43.709Z,71.57
2022-10-07T07:09:12.136Z,71.46
2022-10-07T07:11:45.199Z,71.70
2022-10-07T07:14:16.614Z,71.74
2022-10-07T07:16:47.112Z,71.67
2022-10-07T07:19:16.385Z,71.79
2022-10-07T07:21:49.078Z,71.71
2022-10-07T07:24:21.513Z,71.74
2022-10-07T07:26:49.155Z,71.76
2022-10-07T07:29:17.095Z,71.76
2022-10-07T07:31:45.343Z,71.89
2022-10-07T07:34:13.929Z,72.01
2022-10-07T07:36:51.350Z,71.92
2022-10-07T07:39:22.678Z,72.13
2022-10-07T07:41:53.860Z,72.06
2022-10-07T07:44:25.041Z,72.12
2022-10-07T07:46:52.938Z,72.15
2022-10-07T07:49:24.723Z,72.15
2022-10-07T07:51:52.479Z,72.19
2022-10-07T07:54:25.425Z,72.09
2022-10-07T07:57:00.721Z,72.10
2022-10-07T07:59:31.185Z,72.21
2022-10-07T08:02:02.620Z,72.17
2022-10-07T08:04:33.330Z,72.25
2022-10-07T08:07:01.535Z,72.30
2022-10-07T08:09:29.413Z,72.26
2022-10-07T08:11:58.280Z,72.22
2022-10-07T08:14:25.998Z,72.21
2022-10-07T08:16:56.267Z,72.29
2022-10-07T08:19:26.772Z,72.32
2022-10-07T08:21:54.684Z,72.30
2022-10-07T08:24:27.875Z,72.27
2022-10-07T08:26:59.593Z,72.36
2022-10-07T08:29:27.462Z,71.87
2022-10-07T08:31:55.353Z,70.82
2022-10-07T08:34:24.657Z,70.45
2022-10-07T08:36:52.334Z,70.38
2022-10-07T08:39:20.912Z,70.61
2022-10-07T08:42:15.303Z,70.95
2022-10-07T08:44:48.900Z,71.02
2022-10-07T08:47:26.823Z,71.35
2022-10-07T08:50:08.859Z,71.46
2022-10-07T08:52:39.536Z,71.53
2022-10-07T08:55:34.890Z,71.58
2022-10-07T08:58:45.581Z,71.43
2022-10-07T09:01:45.959Z,71.24
2022-10-07T09:04:36.080Z,71.08
2022-10-07T09:07:36.450Z,71.14
2022-10-07T09:10:26.624Z,70.95
2022-10-07T09:13:14.080Z,70.83
2022-10-07T09:15:49.482Z,70.93
2022-10-07T09:18:35.114Z,70.96
2022-10-07T09:21:31.585Z,70.89
2022-10-07T09:24:32.560Z,70.33
2022-10-07T09:27:13.562Z,69.92
2022-10-07T09:29:46.308Z,69.71
2022-10-07T09:32:19.707Z,69.88
2022-10-07T09:34:48.625Z,69.87
2022-10-07T09:37:21.741Z,69.64
2022-10-07T09:39:53.000Z,69.45
2022-10-07T09:42:43.980Z,69.51
2022-10-07T09:45:19.737Z,69.06
2022-10-07T09:48:10.106Z,68.85
2022-10-07T09:50:43.083Z,68.65
2022-10-07T09:53:20.244Z,68.56
2022-10-07T09:55:50.856Z,68.39
2022-10-07T09:58:25.771Z,68.02
2022-10-07T10:00:59.308Z,67.94
2022-10-07T10:03:37.699Z,67.91
2022-10-07T10:06:09.874Z,67.58
2022-10-07T10:08:43.983Z,67.66
2022-10-07T10:11:20.580Z,67.28
2022-10-07T10:13:52.035Z,67.12
2022-10-07T10:16:28.957Z,66.84
2022-10-07T10:19:03.087Z,66.75
2022-10-07T10:21:41.180Z,66.68
2022-10-07T10:24:15.599Z,66.43
2022-10-07T10:27:16.653Z,66.01
2022-10-07T10:30:04.073Z,65.68
2022-10-07T10:32:57.609Z,65.34
2022-10-07T10:35:37.812Z,64.99
2022-10-07T10:38:25.356Z,64.84
2022-10-07T10:41:10.708Z,64.85
2022-10-07T10:44:31.245Z,64.44
2022-10-07T10:47:15.358Z,64.02
2022-10-07T10:50:07.471Z,63.82
2022-10-07T10:52:49.997Z,63.49
2022-10-07T10:55:41.152Z,63.16
2022-10-07T10:58:30.290Z,63.31
2022-10-07T11:01:25.196Z,63.04
2022-10-07T11:04:13.625Z,62.91
2022-10-07T11:06:48.490Z,62.80
2022-10-07T11:09:33.628Z,62.40
2022-10-07T11:12:06.392Z,62.28
2022-10-07T11:14:46.013Z,62.20
2022-10-07T11:17:16.170Z,61.87
2022-10-07T11:20:05.130Z,61.82
2022-10-07T11:22:48.197Z,61.46
2022-10-07T11:25:43.120Z,61.44
2022-10-07T11:28:22.658Z,61.51
2022-10-07T11:31:05.589Z,61.57
2022-10-07T11:34:01.097Z,61.16
2022-10-07T11:37:05.788Z,60.82
2022-10-07T11:39:39.969Z,60.57
2022-10-07T11:42:25.720Z,60.68
2022-10-07T11:45:16.486Z,60.84
2022-10-07T11:47:50.672Z,60.45
2022-10-07T11:50:31.338Z,60.46
2022-10-07T11:53:21.018Z,60.26
2022-10-07T11:55:59.214Z,60.29
2022-10-07T11:58:37.446Z,59.79
2022-10-07T12:01:30.687Z,59.58
2022-10-07T12:04:00.267Z,59.55
2022-10-07T12:06:28.847Z,59.78
2022-10-07T12:08:56.711Z,59.53
2022-10-07T12:11:32.018Z,59.48
2022-10-07T12:14:31.393Z,59.36
2022-10-07T12:17:20.969Z,58.94
2022-10-07T12:20:45.973Z,58.83
2022-10-07T12:23:21.315Z,58.79
2022-10-07T12:25:51.691Z,58.53
2022-10-07T12:28:42.036Z,58.53
2022-10-07T12:31:12.750Z,58.23
2022-10-07T12:33:46.637Z,58.48
2022-10-07T12:36:26.455Z,58.26
2022-10-07T12:38:56.367Z,58.41
2022-10-07T12:41:40.072Z,58.10
2022-10-07T12:44:36.719Z,57.84
2022-10-07T12:47:12.859Z,57.86
2022-10-07T12:49:56.019Z,57.86
2022-10-07T12:52:32.568Z,57.66
2022-10-07T12:55:34.679Z,57.74
2022-10-07T12:58:35.537Z,57.70
2022-10-07T13:01:11.988Z,57.12
2022-10-07T13:04:05.082Z,57.24
2022-10-07T13:06:55.999Z,57.14
2022-10-07T13:09:26.785Z,56.96
2022-10-07T13:12:19.901Z,56.73
2022-10-07T13:15:12.024Z,56.69
2022-10-07T13:18:14.932Z,56.77
2022-10-07T13:20:58.000Z,56.32
2022-10-07T13:23:27.696Z,56.39
2022-10-07T13:26:00.491Z,56.42
2022-10-07T13:28:52.612Z,56.38
2022-10-07T13:31:29.190Z,56.01
2022-10-07T13:34:17.980Z,56.22
2022-10-07T13:36:45.715Z,55.97
2022-10-07T13:39:23.297Z,55.91
2022-10-07T13:41:55.755Z,55.85
2022-10-07T13:44:30.023Z,55.96
2022-10-07T13:47:05.654Z,55.92
2022-10-07T13:49:46.364Z,55.64
2022-10-07T13:52:33.722Z,55.49
2022-10-07T13:55:01.676Z,55.52
2022-10-07T13:57:36.024Z,55.61
2022-10-07T14:00:07.021Z,55.58
2022-10-07T14:02:39.958Z,55.39
2022-10-07T14:05:43.501Z,55.16
2022-10-07T14:08:18.339Z,55.34
2022-10-07T14:11:05.150Z,55.14
2022-10-07T14:13:35.083Z,55.08
2022-10-07T14:16:04.601Z,55.04
2022-10-07T14:18:33.184Z,55.00
2022-10-07T14:21:16.688Z,55.14
2022-10-07T14:23:47.452Z,54.97
2022-10-07T14:26:17.760Z,54.84
2022-10-07T14:28:45.642Z,54.88
2022-10-07T14:31:41.213Z,54.65
2022-10-07T14:34:39.069Z,54.85
2022-10-07T14:37:19.611Z,54.81
2022-10-07T14:39:52.198Z,54.41
2022-10-07T14:42:26.193Z,54.27
2022-10-07T14:44:58.725Z,54.62
2022-10-07T14:47:31.326Z,54.42
2022-10-07T14:50:01.348Z,54.48
2022-10-07T14:52:52.100Z,54.40
2022-10-07T14:55:28.670Z,54.46
2022-10-07T14:57:57.926Z,54.43
2022-10-07T15:00:35.995Z,54.66
2022-10-07T15:03:07.386Z,54.73
2022-10-07T15:05:36.433Z,54.90
2022-10-07T15:08:05.743Z,54.54
2022-10-07T15:10:33.484Z,54.70
2022-10-07T15:13:04.085Z,54.83
2022-10-07T15:15:34.253Z,54.93
2022-10-07T15:18:01.938Z,54.89
2022-10-07T15:20:30.681Z,54.93
2022-10-07T15:22:58.340Z,54.78
2022-10-07T15:25:26.045Z,54.93
2022-10-07T15:27:53.731Z,54.91
2022-10-07T15:30:21.429Z,54.79
2022-10-07T15:32:50.577Z,54.79
2022-10-07T15:35:21.510Z,54.96
2022-10-07T15:37:50.167Z,54.93
2022-10-07T15:40:18.001Z,54.80
2022-10-07T15:42:45.856Z,54.92
2022-10-07T15:45:17.798Z,54.84
2022-10-07T15:47:45.507Z,54.72
2022-10-07T15:50:13.183Z,54.83
2022-10-07T15:52:42.334Z,54.80
2022-10-07T15:55:11.783Z,54.85
2022-10-07T15:57:41.158Z,54.95
2022-10-07T16:00:09.962Z,54.90
2022-10-07T16:02:37.819Z,54.89
2022-10-07T16:05:05.817Z,54.80
2022-10-07T16:07:33.808Z,55.05
2022-10-07T16:10:01.576Z,55.05
2022-10-07T16:12:31.078Z,55.11
2022-10-07T16:14:59.446Z,55.17
2022-10-07T16:17:27.983Z,55.32
2022-10-07T16:19:55.665Z,55.24
2022-10-07T16:22:24.863Z,54.99
2022-10-07T16:24:54.450Z,55.01
2022-10-07T16:27:42.553Z,55.15
2022-10-07T16:30:31.459Z,55.12
2022-10-07T16:33:00.645Z,55.17
2022-10-07T16:35:31.529Z,55.51
2022-10-07T16:38:00.985Z,55.48
2022-10-07T16:40:28.923Z,55.62
2022-10-07T16:43:00.811Z,55.50
2022-10-07T16:45:28.545Z,55.60
2022-10-07T16:47:58.019Z,55.51
2022-10-07T16:50:26.198Z,55.35
2022-10-07T16:52:54.045Z,55.29
2022-10-07T16:55:21.749Z,55.40
2022-10-07T16:57:50.917Z,55.52
2022-10-07T17:00:18.633Z,55.48
2022-10-07T17:02:46.567Z,55.55
2022-10-07T17:05:14.578Z,55.61
2022-10-07T17:07:42.531Z,55.66
2022-10-07T17:10:10.492Z,55.89
2022-10-07T17:12:38.139Z,55.86
2022-10-07T17:15:09.338Z,55.88
2022-10-07T17:17:38.620Z,56.09
2022-10-07T17:20:10.224Z,56.12
2022-10-07T17:22:40.273Z,56.25
2022-10-07T17:25:10.306Z,56.20
2022-10-07T17:27:38.192Z,56.01
2022-10-07T17:30:08.174Z,56.23
2022-10-07T17:32:36.098Z,56.35
2022-10-07T17:35:08.484Z,56.42
2022-10-07T17:37:36.438Z,56.42
2022-10-07T17:40:05.790Z,56.47
2022-10-07T17:42:33.708Z,56.36
2022-10-07T17:45:01.543Z,56.50
2022-10-07T17:47:29.642Z,56.52
2022-10-07T17:50:01.099Z,56.63
2022-10-07T17:52:30.452Z,56.70
2022-10-07T17:54:59.857Z,56.61
2022-10-07T17:57:27.880Z,56.88
2022-10-07T17:59:57.103Z,56.96
2022-10-07T18:02:25.047Z,57.04
2022-10-07T18:04:52.712Z,56.96
2022-10-07T18:07:21.928Z,57.11
2022-10-07T18:09:50.225Z,57.07
2022-10-07T18:12:38.775Z,57.21
2022-10-07T18:15:23.786Z,57.30
2022-10-07T18:17:57.380Z,57.26
2022-10-07T18:20:28.914Z,57.28
2022-10-07T18:22:59.732Z,57.52
2022-10-07T18:25:29.133Z,57.66
2022-10-07T18:27:57.008Z,57.62
2022-10-07T18:30:24.872Z,57.65
2022-10-07T18:32:54.194Z,57.71
2022-10-07T18:35:22.083Z,57.77
2022-10-07T18:37:52.405Z,57.73
2022-10-07T18:40:20.092Z,57.77
2022-10-07T18:42:48.051Z,58.00
2022-10-07T18:45:15.823Z,57.94
2022-10-07T18:47:43.603Z,58.05
2022-10-07T18:50:12.344Z,57.98
2022-10-07T18:52:40.322Z,57.99
2022-10-07T18:55:09.960Z,58.30
2022-10-07T18:57:37.617Z,58.28
2022-10-07T19:00:07.576Z,58.17
2022-10-07T19:02:35.285Z,58.31
2022-10-07T19:05:04.618Z,58.27
2022-10-07T19:07:33.334Z,58.33
2022-10-07T19:10:02.636Z,58.39
2022-10-07T19:12:49.306Z,58.44
2022-10-07T19:15:19.693Z,58.46
2022-10-07T19:17:47.934Z,58.47
2022-10-07T19:20:18.541Z,58.57
2022-10-07T19:22:46.308Z,58.66
2022-10-07T19:25:32.443Z,58.72
2022-10-07T19:28:00.398Z,58.81
2022-10-07T19:30:29.151Z,59.01
2022-10-07T19:32:57.529Z,59.16
2022-10-07T19:35:25.162Z,59.20
2022-10-07T19:37:54.698Z,59.38
2022-10-07T19:40:22.463Z,59.37
2022-10-07T19:42:50.191Z,59.58
2022-10-07T19:45:18.135Z,59.62
2022-10-07T19:47:46.013Z,59.66
2022-10-07T19:50:15.800Z,59.80
2022-10-07T19:52:45.914Z,59.78
2022-10-07T19:55:13.588Z,59.91
2022-10-07T19:57:41.248Z,60.03
2022-10-07T20:00:11.224Z,60.06
2022-10-07T20:02:39.174Z,60.15
2022-10-07T20:05:11.104Z,60.18
2022-10-07T20:07:40.221Z,60.37
2022-10-07T20:10:09.620Z,60.51
2022-10-07T20:12:40.721Z,60.52
2022-10-07T20:15:11.662Z,60.63
2022-10-07T20:17:41.947Z,60.80
2022-10-07T20:20:12.445Z,60.93
2022-10-07T20:22:44.715Z,60.99
2022-10-07T20:25:17.616Z,61.09
2022-10-07T20:27:45.629Z,61.14
2022-10-07T20:30:18.249Z,61.31
2022-10-07T20:32:47.972Z,61.29
2022-10-07T20:35:16.739Z,61.44
2022-10-07T20:37:44.393Z,61.60
2022-10-07T20:40:32.944Z,61.63
2022-10-07T20:43:03.831Z,61.74
2022-10-07T20:45:52.049Z,61.73
2022-10-07T20:48:20.605Z,61.83
2022-10-07T20:50:50.571Z,62.00
2022-10-07T20:53:18.214Z,61.95
2022-10-07T20:55:47.733Z,62.15
2022-10-07T20:58:16.972Z,62.21
2022-10-07T21:00:46.340Z,62.42
2022-10-07T21:03:14.247Z,62.37
2022-10-07T21:05:45.659Z,62.44
2022-10-07T21:08:16.574Z,62.57
2022-10-07T21:10:44.890Z,62.60
2022-10-07T21:13:17.033Z,62.68
2022-10-07T21:15:46.744Z,62.81
2022-10-07T21:18:17.246Z,62.80
2022-10-07T21:20:56.687Z,62.95
2022-10-07T21:23:31.145Z,62.91
2022-10-07T21:26:02.094Z,63.10
2022-10-07T21:28:36.793Z,63.17
2022-10-07T21:31:11.136Z,63.32
2022-10-07T21:33:42.693Z,63.27
2022-10-07T21:36:16.952Z,63.28
2022-10-07T21:38:54.091Z,63.59
2022-10-07T21:41:41.107Z,63.67
2022-10-07T21:44:16.445Z,63.62
2022-10-07T21:46:49.395Z,63.86
2022-10-07T21:49:20.719Z,63.89
2022-10-07T21:51:48.372Z,63.82
2022-10-07T21:54:19.410Z,63.91
2022-10-07T21:56:50.616Z,63.96
2022-10-07T21:59:21.572Z,64.00
2022-10-07T22:01:50.819Z,64.21
2022-10-07T22:04:21.352Z,64.27
2022-10-07T22:07:10.783Z,64.25
2022-10-07T22:09:42.420Z,64.43
2022-10-07T22:12:10.228Z,64.52
2022-10-07T22:14:41.586Z,64.59
2022-10-07T22:17:09.322Z,64.78
2022-10-07T22:19:41.046Z,64.76
2022-10-07T22:22:14.106Z,64.72
2022-10-07T22:24:46.996Z,64.90
2022-10-07T22:27:17.204Z,64.98
2022-10-07T22:29:44.871Z,65.06
2022-10-07T22:32:13.097Z,65.06
2022-10-07T22:34:59.337Z,65.13
2022-10-07T22:37:27.222Z,65.37
2022-10-07T22:39:55.597Z,65.29
2022-10-07T22:42:23.927Z,65.34
2022-10-07T22:44:52.522Z,65.48
2022-10-07T22:47:20.562Z,65.68
2022-10-07T22:49:48.697Z,65.73
2022-10-07T22:52:16.744Z,65.70
2022-10-07T22:54:45.258Z,65.91
2022-10-07T22:57:13.563Z,65.79
2022-10-07T22:59:41.417Z,65.84
2022-10-07T23:02:10.860Z,65.84
2022-10-07T23:04:38.628Z,66.11
2022-10-07T23:07:07.150Z,66.06
2022-10-07T23:09:35.040Z,66.15
2022-10-07T23:12:05.762Z,66.25
2022-10-07T23:14:34.155Z,66.48
2022-10-07T23:17:02.860Z,66.41
2022-10-07T23:19:31.635Z,66.53
2022-10-07T23:22:00.816Z,66.76
2022-10-07T23:24:28.936Z,66.56
2022-10-07T23:26:57.122Z,66.66
2022-10-07T23:29:26.950Z,66.51
2022-10-07T23:31:55.255Z,66.51
2022-10-07T23:34:23.560Z,66.58
2022-10-07T23:36:54.591Z,66.63
2022-10-07T23:39:23.808Z,66.73
2022-10-07T23:41:51.511Z,66.91
2022-10-07T23:44:20.991Z,67.00
2022-10-07T23:46:51.027Z,66.95
2022-10-07T23:49:19.962Z,66.98
2022-10-07T23:51:49.033Z,67.06
2022-10-07T23:54:17.255Z,67.10
2022-10-07T23:56:45.846Z,67.07
2022-10-07T23:59:14.485Z,67.16
